Time;durP1;ratioP1;P1;durP2;ratioP2;P2;SDS_P1;SDS_P2;PMS_P1;PMS_P2;Temp;Humidity;BMP_temperature;BMP_pressure;BME280_temperature;BME280_humidity;BME280_pressure;Samples;Min_cycle;Max_cycle;Signal;HPM_P1;HPM_P2
2021/04/04 00:01:27;;;;;;;13.52;4.88;;;4.70;97.90;;;5.48;57.21;101972.97;5058400;28;20201;-72
2021/04/04 00:03:54;;;;;;;12.30;4.25;;;4.70;97.90;;;5.50;57.11;101975.56;5057398;28;20290;-72
2021/04/04 00:06:21;;;;;;;13.57;4.38;;;4.70;98.10;;;5.51;57.07;101977.31;5055149;28;20629;-73
2021/04/04 00:08:47;;;;;;;14.60;4.68;;;4.70;98.30;;;5.50;57.07;101976.44;5056135;28;20250;-72
2021/04/04 00:11:14;;;;;;;13.85;4.80;;;4.60;98.40;;;5.50;57.19;101972.97;5061520;28;20244;-73
2021/04/04 00:13:42;;;;;;;14.60;4.93;;;4.60;98.40;;;5.50;57.05;101975.56;5071356;28;20188;-73
2021/04/04 00:16:08;;;;;;;14.30;4.75;;;4.60;98.60;;;5.49;57.19;101971.25;5075710;28;20187;-72
2021/04/04 00:18:35;;;;;;;11.57;4.65;;;4.70;98.60;;;5.47;57.29;101963.47;5065963;28;20197;-73
2021/04/04 00:21:04;;;;;;;12.67;4.63;;;4.70;98.90;;;5.46;57.32;101966.91;5052008;28;20200;-72
2021/04/04 00:23:31;;;;;;;12.60;4.60;;;4.60;99.20;;;5.45;57.35;101966.91;5066800;28;20838;-73
2021/04/04 00:25:57;;;;;;;12.40;4.57;;;4.60;99.30;;;5.43;57.69;101959.13;5058247;28;20207;-72
2021/04/04 00:28:24;;;;;;;14.05;5.20;;;4.60;99.40;;;5.45;57.70;101970.38;5059823;28;20192;-72
2021/04/04 00:30:50;;;;;;;11.90;4.40;;;4.60;99.80;;;5.43;57.69;101969.50;5077157;28;20258;-72
2021/04/04 00:33:17;;;;;;;13.05;4.30;;;4.60;99.80;;;5.44;57.84;101965.19;5076022;28;20192;-73
2021/04/04 00:35:43;;;;;;;15.25;5.13;;;4.60;99.90;;;5.44;58.14;101970.38;5077162;28;20192;-72
2021/04/04 00:38:10;;;;;;;15.23;5.20;;;4.60;99.90;;;5.43;57.79;101969.50;5076269;28;20211;-72
2021/04/04 00:40:38;;;;;;;11.98;5.25;;;4.60;99.90;;;5.44;58.12;101967.78;5053791;28;20676;-73
2021/04/04 00:43:06;;;;;;;10.93;4.10;;;4.60;99.90;;;5.43;58.08;101971.22;5055757;28;20280;-72
2021/04/04 00:45:36;;;;;;;13.10;4.53;;;4.60;99.90;;;5.42;57.99;101967.78;5057841;28;20570;-72
2021/04/04 00:48:03;;;;;;;13.30;4.57;;;4.60;99.90;;;5.40;58.30;101958.22;5056039;28;20197;-72
2021/04/04 00:50:36;;;;;;;12.93;4.60;;;4.50;99.90;;;5.40;58.21;101966.03;5056852;28;20278;-72
2021/04/04 00:53:05;;;;;;;11.82;4.80;;;4.50;99.90;;;5.37;58.29;101963.41;5055535;28;20706;-73
2021/04/04 00:55:32;;;;;;;12.43;4.68;;;4.50;99.90;;;5.37;58.16;101963.41;5059779;28;20677;-72
2021/04/04 00:58:00;;;;;;;12.57;4.50;;;4.60;99.90;;;5.35;58.62;101954.75;5074555;28;20188;-73
2021/04/04 01:00:29;;;;;;;10.32;4.22;;;4.50;99.90;;;5.36;58.33;101964.28;5076788;28;20184;-72
2021/04/04 01:02:57;;;;;;;12.47;4.23;;;4.50;99.90;;;5.33;58.38;101961.66;5075453;28;20223;-72
2021/04/04 01:05:28;;;;;;;14.60;3.83;;;4.50;99.90;;;5.35;58.67;101962.53;5075997;28;20666;-72
2021/04/04 01:07:57;;;;;;;10.48;3.70;;;4.50;99.90;;;5.37;58.65;101968.59;5081238;28;20295;-72
2021/04/04 01:10:28;;;;;;;10.85;3.40;;;4.50;99.90;;;5.39;58.67;101966.91;5058789;28;20669;-72
2021/04/04 01:13:09;;;;;;;11.60;3.50;;;4.50;99.90;;;5.41;58.17;101970.38;5056888;28;20723;-72
2021/04/04 01:15:43;;;;;;;9.75;3.10;;;4.50;99.90;;;5.43;57.96;101971.22;5058828;28;20201;-72
2021/04/04 01:18:22;;;;;;;10.68;3.05;;;4.50;99.90;;;5.44;58.11;101975.56;5073293;28;20211;-72
2021/04/04 01:20:54;;;;;;;9.93;3.15;;;4.50;99.90;;;5.42;57.75;101969.50;5075826;28;20199;-72
2021/04/04 01:24:10;;;;;;;11.27;3.75;;;4.50;99.90;;;5.40;57.97;101966.91;5075935;28;20291;-73
2021/04/04 01:26:51;;;;;;;8.67;3.60;;;4.50;99.90;;;5.37;58.51;101972.06;5060191;28;20211;-72
2021/04/04 01:29:21;;;;;;;10.55;3.55;;;4.50;99.90;;;5.38;58.16;101968.63;5065443;28;20200;-72
2021/04/04 01:31:50;;;;;;;10.48;3.20;;;4.50;99.90;;;5.37;58.30;101964.28;5066576;28;20230;-73
2021/04/04 01:34:20;;;;;;;7.87;3.00;;;4.50;99.90;;;5.36;58.40;101966.88;5075403;28;20654;-72
2021/04/04 01:36:50;;;;;;;10.13;2.80;;;4.50;99.90;;;5.34;58.07;101961.69;5075483;28;20215;-72
2021/04/04 01:39:21;;;;;;;9.20;2.80;;;4.50;99.90;;;5.30;57.76;101967.72;5067774;28;20193;-73
2021/04/04 01:41:50;;;;;;;7.40;2.67;;;4.40;99.90;;;5.26;58.00;101959.94;5053463;28;20208;-73
2021/04/04 01:44:23;;;;;;;10.27;2.70;;;4.40;99.90;;;5.26;57.88;101970.31;5059719;28;20217;-72
2021/04/04 01:46:53;;;;;;;8.10;2.50;;;4.40;99.90;;;5.25;57.87;101961.66;5064383;28;20189;-72
2021/04/04 01:49:21;;;;;;;7.43;2.40;;;4.40;99.90;;;5.26;57.45;101971.16;5052433;28;20579;-73
2021/04/04 01:51:49;;;;;;;9.18;2.60;;;4.40;99.90;;;5.27;57.74;101964.25;5060801;28;20234;-72
2021/04/04 01:54:18;;;;;;;7.63;2.35;;;4.40;99.90;;;5.26;57.69;101957.34;5079166;28;20206;-73
2021/04/04 01:56:50;;;;;;;8.47;2.40;;;4.40;99.90;;;5.23;57.52;101957.28;5053349;28;20197;-72
2021/04/04 01:59:20;;;;;;;9.73;2.70;;;4.40;99.90;;;5.25;57.48;101960.75;5061692;28;20196;-71
2021/04/04 02:01:48;;;;;;;6.93;2.20;;;4.40;99.90;;;5.25;57.66;101961.66;5070854;28;20212;-72
2021/04/04 02:04:18;;;;;;;6.82;1.92;;;4.30;99.90;;;5.26;57.44;101949.56;5074487;28;20220;-73
2021/04/04 02:06:45;;;;;;;8.13;2.30;;;4.40;99.90;;;5.25;57.40;101958.19;5074005;28;20194;-72
2021/04/04 02:09:15;;;;;;;6.78;2.00;;;4.40;99.90;;;5.23;57.63;101955.56;5067006;28;20366;-73
2021/04/04 02:11:45;;;;;;;7.47;2.17;;;4.40;99.90;;;5.21;57.52;101948.66;5051875;28;20224;-73
2021/04/04 02:14:17;;;;;;;7.45;2.00;;;4.30;99.90;;;5.21;57.86;101946.06;5064085;28;20204;-72
2021/04/04 02:16:48;;;;;;;9.55;2.58;;;4.30;99.90;;;5.21;57.58;101940.88;5064247;28;20216;-73
2021/04/04 02:19:18;;;;;;;11.07;3.13;;;4.30;99.90;;;5.16;58.09;101947.78;5057605;28;20656;-72
2021/04/04 02:21:49;;;;;;;8.93;3.00;;;4.30;99.90;;;5.07;58.27;101941.66;5060908;28;20248;-73
2021/04/04 02:24:19;;;;;;;8.75;3.35;;;4.20;99.90;;;4.98;58.78;101933.84;5067224;28;20800;-72
2021/04/04 02:26:46;;;;;;;13.23;3.70;;;4.20;99.90;;;4.89;59.34;101938.09;5054909;28;20220;-73
2021/04/04 02:29:13;;;;;;;10.40;3.40;;;4.10;99.90;;;4.85;59.47;101936.38;5066007;28;20249;-72
2021/04/04 02:31:46;;;;;;;7.60;3.25;;;4.10;99.90;;;4.82;60.11;101932.03;5063166;28;20212;-72
2021/04/04 02:34:20;;;;;;;8.35;3.33;;;4.00;99.90;;;4.80;60.46;101920.81;5067944;28;20677;-72
2021/04/04 02:36:48;;;;;;;12.32;3.25;;;4.00;99.90;;;4.81;60.31;101924.25;5070675;28;20676;-72
2021/04/04 02:39:19;;;;;;;9.45;3.30;;;4.00;99.90;;;4.83;60.13;101920.81;5067464;28;20215;-72
2021/04/04 02:41:47;;;;;;;10.20;3.33;;;4.00;99.90;;;4.85;60.29;101915.63;5059888;28;20224;-73
2021/04/04 02:44:14;;;;;;;12.30;3.17;;;4.00;99.90;;;4.85;60.29;101911.31;5054731;28;20751;-73
2021/04/04 02:46:51;;;;;;;8.53;3.00;;;4.00;99.90;;;4.85;60.22;101908.72;5054231;28;20185;-73
2021/04/04 02:49:20;;;;;;;10.60;2.87;;;4.00;99.90;;;4.89;60.31;101917.38;5056904;28;20256;-72
2021/04/04 02:51:52;;;;;;;6.53;2.10;;;4.00;99.90;;;4.90;59.90;101920.00;5065853;28;20758;-72
2021/04/04 02:54:25;;;;;;;6.57;2.10;;;4.00;99.90;;;4.92;59.91;101913.06;5069491;28;20293;-72
2021/04/04 02:56:55;;;;;;;7.53;2.20;;;4.00;99.90;;;4.93;59.50;101908.75;5063061;28;20201;-72
2021/04/04 02:59:25;;;;;;;7.23;2.10;;;4.00;99.90;;;4.94;59.73;101916.53;5074515;28;20180;-73
2021/04/04 03:01:56;;;;;;;6.47;2.30;;;4.00;99.90;;;4.95;59.24;101913.09;5073672;28;20268;-72
2021/04/04 03:04:25;;;;;;;6.50;1.90;;;4.00;99.90;;;4.94;59.62;101913.06;5075379;28;20215;-73
2021/04/04 03:06:53;;;;;;;8.07;2.20;;;4.00;99.90;;;4.94;59.56;101907.88;5080821;28;20282;-72
2021/04/04 03:09:22;;;;;;;6.30;1.90;;;4.00;99.90;;;4.96;59.19;101911.34;5076750;28;20201;-70
2021/04/04 03:11:51;;;;;;;7.30;2.00;;;4.00;99.90;;;4.96;59.53;101909.63;5069604;28;20254;-72
2021/04/04 03:14:19;;;;;;;7.73;2.07;;;4.00;99.90;;;4.97;59.23;101905.31;5050563;28;20211;-73
2021/04/04 03:16:49;;;;;;;7.35;2.03;;;4.10;99.90;;;4.96;59.17;101908.75;5051279;28;20207;-72
2021/04/04 03:19:19;;;;;;;5.90;1.90;;;4.00;99.90;;;4.96;59.40;101909.63;5048986;28;20220;-72
2021/04/04 03:21:47;;;;;;;4.73;1.87;;;4.00;99.90;;;4.95;59.02;101907.91;5049763;28;20258;-72
2021/04/04 03:24:16;;;;;;;5.17;1.93;;;4.00;99.90;;;4.95;58.90;101907.91;5079227;28;20243;-72
2021/04/04 03:26:46;;;;;;;7.57;1.80;;;4.10;99.90;;;4.95;58.97;101907.91;5072451;28;20199;-72
2021/04/04 03:29:13;;;;;;;8.15;2.17;;;4.00;99.90;;;4.95;58.86;101900.13;5071738;28;20197;-72
2021/04/04 03:31:41;;;;;;;6.13;1.70;;;4.00;99.90;;;4.95;58.89;101900.13;5066283;28;20568;-73
2021/04/04 03:34:08;;;;;;;6.78;1.95;;;4.00;99.90;;;4.95;59.03;101894.94;5059709;28;20222;-72
2021/04/04 03:36:38;;;;;;;8.18;1.90;;;4.00;99.90;;;4.93;58.76;101896.66;5054553;28;20185;-73
2021/04/04 03:39:06;;;;;;;5.93;1.70;;;4.00;99.90;;;4.93;58.88;101893.19;5059195;28;20189;-73
2021/04/04 03:41:35;;;;;;;7.10;1.98;;;4.00;99.90;;;4.92;58.84;101881.09;5049989;28;20217;-72
2021/04/04 03:44:02;;;;;;;5.63;1.93;;;4.00;99.90;;;4.91;59.12;101877.63;5068709;28;20600;-73
2021/04/04 03:46:34;;;;;;;5.53;1.60;;;4.00;99.90;;;4.94;59.28;101879.34;5072222;28;20658;-73
2021/04/04 03:49:02;;;;;;;7.13;1.70;;;4.00;99.90;;;4.93;59.14;101881.09;5066826;28;20562;-73
2021/04/04 03:51:30;;;;;;;4.87;1.67;;;4.00;99.90;;;4.91;58.74;101882.81;5061549;28;20307;-72
2021/04/04 03:53:59;;;;;;;5.80;1.60;;;4.00;99.90;;;4.93;59.13;101882.81;5061276;28;20203;-72
2021/04/04 03:56:30;;;;;;;5.23;1.87;;;4.00;99.90;;;4.93;58.86;101873.34;5063575;28;20245;-72
2021/04/04 03:59:01;;;;;;;4.57;1.60;;;4.00;99.90;;;4.93;58.64;101877.63;5068326;28;20214;-72
2021/04/04 04:01:30;;;;;;;6.20;1.55;;;4.00;99.90;;;4.95;58.71;101878.53;5055168;28;20215;-72
2021/04/04 04:03:59;;;;;;;3.97;1.60;;;4.00;99.90;;;4.91;58.68;101869.84;5054076;28;20213;-72
2021/04/04 04:06:27;;;;;;;4.43;1.40;;;4.00;99.90;;;4.92;58.46;101874.16;5062366;28;20210;-73
2021/04/04 04:08:54;;;;;;;7.27;2.33;;;4.00;99.90;;;4.91;58.65;101863.78;5060291;28;20829;-72
2021/04/04 04:11:23;;;;;;;3.77;1.43;;;4.00;99.90;;;4.90;58.56;101865.53;5044564;28;20220;-72
2021/04/04 04:13:50;;;;;;;8.57;2.20;;;4.00;99.90;;;4.92;58.64;101871.56;5055217;28;20204;-73
2021/04/04 04:16:17;;;;;;;5.60;1.77;;;4.00;99.90;;;4.91;58.47;101875.03;5054208;28;20567;-73
2021/04/04 04:18:45;;;;;;;6.07;1.90;;;4.00;99.90;;;4.89;59.08;101865.50;5062477;28;20199;-73
2021/04/04 04:21:13;;;;;;;6.13;2.00;;;4.00;99.90;;;4.84;59.27;101862.91;5058222;28;20619;-72
2021/04/04 04:23:41;;;;;;;6.30;1.83;;;3.90;99.90;;;4.83;59.04;101858.59;5057870;28;20209;-72
2021/04/04 04:26:13;;;;;;;5.57;2.00;;;3.90;99.90;;;4.83;58.85;101861.19;5060722;28;20216;-72
2021/04/04 04:28:42;;;;;;;7.93;2.23;;;3.90;99.90;;;4.81;58.84;101862.91;5057495;28;20200;-73
2021/04/04 04:31:14;;;;;;;5.83;1.70;;;3.90;99.90;;;4.80;58.93;101858.59;5068811;28;20219;-72
2021/04/04 04:33:47;;;;;;;6.27;1.83;;;3.90;99.90;;;4.77;58.83;101855.13;5056877;28;20283;-72
2021/04/04 04:36:17;;;;;;;5.63;1.70;;;3.90;99.90;;;4.78;58.73;101856.84;5045761;28;20669;-72
2021/04/04 04:38:44;;;;;;;7.17;2.13;;;3.90;99.90;;;4.77;58.68;101863.72;5056158;28;20238;-71
2021/04/04 04:41:14;;;;;;;10.87;1.90;;;3.80;99.90;;;4.79;58.63;101864.63;5046512;28;20231;-72
2021/04/04 04:43:47;;;;;;;6.63;1.90;;;3.90;99.90;;;4.81;58.58;101862.03;5047989;28;20288;-73
2021/04/04 04:46:15;;;;;;;5.47;1.97;;;3.90;99.90;;;4.79;58.72;101859.44;5044312;28;20201;-72
2021/04/04 04:48:42;;;;;;;7.07;1.90;;;3.90;99.90;;;4.78;58.67;101856.84;5044731;28;20211;-72
2021/04/04 04:51:10;;;;;;;6.73;1.80;;;3.80;99.90;;;4.77;58.82;101850.78;5042928;28;20224;-72
2021/04/04 04:53:38;;;;;;;4.47;1.60;;;3.90;99.90;;;4.75;58.95;101855.09;5033160;28;20216;-71
2021/04/04 04:56:06;;;;;;;6.67;1.70;;;3.90;99.90;;;4.75;58.72;101852.50;5033810;28;20193;-72
2021/04/04 04:58:35;;;;;;;7.50;1.90;;;3.90;99.90;;;4.73;58.56;101849.03;5033991;28;20243;-71
2021/04/04 05:01:07;;;;;;;8.10;1.90;;;3.90;99.90;;;4.76;58.85;101861.13;5027062;28;20215;-72
2021/04/04 05:03:34;;;;;;;7.50;1.80;;;3.90;99.90;;;4.76;58.74;101854.25;5032202;28;20225;-72
2021/04/04 05:06:09;;;;;;;6.00;1.80;;;3.90;99.90;;;4.79;58.39;101858.56;5045407;28;20219;-72
2021/04/04 05:08:38;;;;;;;5.97;1.90;;;3.90;99.90;;;4.79;58.14;101855.97;5051867;28;20185;-72
2021/04/04 05:11:08;;;;;;;6.93;1.80;;;3.90;99.90;;;4.77;58.26;101860.28;5064790;28;20205;-73
2021/04/04 05:13:39;;;;;;;6.53;1.90;;;3.90;99.90;;;4.76;58.31;101854.25;5050690;28;20208;-73
2021/04/04 05:16:09;;;;;;;7.50;1.90;;;3.90;99.90;;;4.80;57.95;101853.41;5062654;28;20191;-72
2021/04/04 05:18:36;;;;;;;8.90;2.13;;;3.90;99.90;;;4.85;57.86;101854.28;5053181;28;20196;-72
2021/04/04 05:21:03;;;;;;;4.83;1.80;;;4.00;99.90;;;4.88;57.66;101849.09;5059778;28;20231;-73
2021/04/04 05:23:30;;;;;;;8.47;2.17;;;4.00;99.90;;;4.92;57.74;101857.78;5067222;28;20246;-72
2021/04/04 05:25:58;;;;;;;6.17;2.00;;;4.00;99.90;;;4.95;57.79;101852.59;5061416;28;20185;-73
2021/04/04 05:28:25;;;;;;;6.67;2.10;;;4.10;99.90;;;4.99;57.75;101855.19;5056671;28;20200;-72
2021/04/04 05:30:52;;;;;;;6.43;2.13;;;4.10;99.90;;;5.01;57.78;101850.00;5056205;28;20675;-72
2021/04/04 05:33:19;;;;;;;7.60;2.10;;;4.10;99.90;;;5.06;57.49;101846.56;5060707;28;20185;-72
2021/04/04 05:35:46;;;;;;;5.97;2.20;;;4.20;99.90;;;5.10;57.86;101850.94;5050265;28;20653;-72
2021/04/04 05:38:12;;;;;;;7.07;2.17;;;4.20;99.90;;;5.12;57.84;101848.34;5052830;28;20192;-72
2021/04/04 05:40:39;;;;;;;8.07;2.10;;;4.20;99.90;;;5.13;57.61;101840.56;5051451;28;20221;-72
2021/04/04 05:43:13;;;;;;;7.63;2.17;;;4.20;99.90;;;5.15;58.01;101845.75;5060579;28;20226;-73
2021/04/04 05:45:50;;;;;;;6.47;2.20;;;4.30;99.90;;;5.16;57.95;101839.69;5057418;28;20623;-73
2021/04/04 05:48:35;;;;;;;8.30;2.20;;;4.30;99.90;;;5.19;57.75;101838.84;5053395;28;20199;-73
2021/04/04 05:51:24;;;;;;;10.50;2.43;;;4.40;99.90;;;5.20;57.58;101833.66;5053221;28;20246;-73
2021/04/04 05:54:17;;;;;;;6.45;2.10;;;4.40;99.90;;;5.22;57.28;101831.06;5059325;28;20232;-72
2021/04/04 05:56:51;;;;;;;8.97;2.70;;;4.40;99.90;;;5.26;57.43;101836.25;5056882;28;20200;-73
2021/04/04 05:59:30;;;;;;;8.05;2.63;;;4.50;99.90;;;5.32;57.16;101838.00;5047348;28;20199;-72
2021/04/04 06:02:49;;;;;;;7.27;2.20;;;4.50;99.90;;;5.41;57.11;101833.66;5050325;28;20220;-73
2021/04/04 06:05:55;;;;;;;8.37;2.60;;;4.50;99.90;;;5.45;57.36;101831.94;5056396;28;20275;-72
2021/04/04 06:08:48;;;;;;;8.90;2.57;;;4.60;99.90;;;5.47;57.40;101831.09;5054408;28;20184;-72
2021/04/04 06:11:26;;;;;;;8.35;2.67;;;4.70;99.90;;;5.52;57.42;101837.16;5053710;28;20231;-73
2021/04/04 06:14:07;;;;;;;6.63;2.25;;;4.70;99.90;;;5.56;57.45;101836.28;5050441;28;20201;-72
2021/04/04 06:16:48;;;;;;;7.32;2.30;;;4.70;99.90;;;5.57;57.46;101831.97;5039235;28;20203;-72
2021/04/04 06:19:32;;;;;;;10.65;2.88;;;4.80;99.90;;;5.60;57.38;101834.56;5043319;28;20189;-72
2021/04/04 06:22:14;;;;;;;7.83;2.70;;;4.90;99.90;;;5.63;57.40;101840.63;5053500;28;20205;-72
2021/04/04 06:24:46;;;;;;;7.50;2.30;;;4.90;99.90;;;5.65;57.53;101838.03;5055685;28;20221;-72
2021/04/04 06:27:21;;;;;;;8.97;2.80;;;4.90;99.90;;;5.67;57.58;101833.72;5042666;28;20200;-72
2021/04/04 06:30:20;;;;;;;8.45;2.55;;;5.00;99.90;;;5.70;57.50;101838.91;5043226;28;20207;-72
2021/04/04 06:33:00;;;;;;;8.07;2.80;;;5.00;99.90;;;5.70;57.77;101839.78;5039895;28;20258;-71
2021/04/04 06:35:38;;;;;;;9.82;2.55;;;5.00;99.90;;;5.76;57.68;101844.94;5043040;28;20572;-72
2021/04/04 06:38:34;;;;;;;8.43;2.72;;;5.10;99.90;;;5.83;57.59;101840.66;5041361;28;20275;-72
2021/04/04 06:41:14;;;;;;;10.82;3.55;;;5.20;99.90;;;5.87;57.27;101839.81;5041549;28;20301;-72
2021/04/04 06:44:07;;;;;;;9.20;2.88;;;5.20;99.90;;;5.90;57.00;101832.88;5040178;28;20244;-72
2021/04/04 06:46:54;;;;;;;7.95;2.35;;;5.30;99.90;;;5.87;57.16;101834.59;5041721;28;20230;-73
2021/04/04 06:49:35;;;;;;;9.15;2.70;;;5.30;99.90;;;5.92;57.25;101823.38;5041598;28;20254;-71
2021/04/04 06:52:22;;;;;;;9.73;2.80;;;5.30;99.90;;;5.96;57.59;101832.88;5045806;28;20308;-72
2021/04/04 06:55:03;;;;;;;9.77;2.53;;;5.40;99.90;;;6.05;57.45;101822.47;5042042;28;20201;-72
2021/04/04 06:58:01;;;;;;;10.05;2.75;;;5.50;99.90;;;6.13;57.34;101827.66;5042796;28;20203;-71
2021/04/04 07:00:37;;;;;;;10.07;2.50;;;5.60;99.90;;;6.23;57.46;101827.63;5050865;28;20720;-73
2021/04/04 07:03:08;;;;;;;9.10;2.60;;;5.70;99.90;;;6.30;57.28;101833.69;5052847;28;20212;-72
2021/04/04 07:05:45;;;;;;;11.23;3.10;;;5.80;99.90;;;6.30;57.75;101834.56;5055750;28;20771;-72
2021/04/04 07:09:01;;;;;;;8.82;2.85;;;5.80;99.90;;;6.31;57.91;101830.25;5070360;28;20545;-72
2021/04/04 07:11:37;;;;;;;8.68;2.60;;;5.90;99.90;;;6.31;57.69;101831.06;5035566;28;20572;-73
2021/04/04 07:14:32;;;;;;;11.05;3.08;;;5.90;99.90;;;6.33;57.77;101834.53;5039292;28;20327;-72
2021/04/04 07:17:40;;;;;;;10.20;2.83;;;5.90;99.90;;;6.42;57.59;101835.38;5052485;28;20196;-73
2021/04/04 07:20:22;;;;;;;8.15;2.47;;;6.00;99.90;;;6.53;57.39;101834.47;5043407;28;20220;-71
2021/04/04 07:23:26;;;;;;;8.18;2.60;;;6.10;99.90;;;6.60;57.54;101836.19;5041815;28;20212;-71
2021/04/04 07:26:03;;;;;;;9.23;2.42;;;6.20;99.90;;;6.65;57.50;101837.06;5034343;22;20723;-70
2021/04/04 07:28:57;;;;;;;9.27;2.50;;;6.30;99.90;;;6.68;57.23;101831.84;5023360;28;20197;-73
2021/04/04 07:31:31;;;;;;;6.38;2.30;;;6.30;99.90;;;6.71;57.21;101830.97;5074236;22;20251;-81
2021/04/04 07:34:12;;;;;;;8.20;2.40;;;6.40;99.90;;;6.69;56.86;101827.50;5043518;28;20185;-82
2021/04/04 07:36:50;;;;;;;8.85;2.40;;;6.40;99.90;;;6.74;56.82;101826.63;5042224;28;20296;-81
2021/04/04 07:39:30;;;;;;;9.02;2.85;;;6.40;99.90;;;6.85;57.07;101824.00;5031866;28;20192;-77
2021/04/04 07:42:13;;;;;;;8.50;2.78;;;6.50;99.90;;;6.91;57.10;101819.63;5049305;28;20278;-79
2021/04/04 07:44:51;;;;;;;7.50;2.30;;;6.60;99.90;;;6.89;56.60;101821.38;5020979;28;20803;-74
2021/04/04 07:47:27;;;;;;;8.40;2.47;;;6.60;99.90;;;6.91;56.83;101818.75;5036054;28;20463;-73
2021/04/04 07:49:59;;;;;;;7.45;2.60;;;6.60;99.90;;;6.98;56.60;101812.66;5039821;22;20325;-73
2021/04/04 07:52:32;;;;;;;10.05;2.80;;;6.70;99.90;;;7.06;56.58;101808.25;5020477;28;20293;-72
2021/04/04 07:55:09;;;;;;;10.52;2.63;;;6.80;99.90;;;7.15;56.48;101803.03;5023961;28;20776;-71
2021/04/04 07:57:52;;;;;;;11.48;2.72;;;6.90;99.90;;;7.24;56.83;101793.41;5058672;28;20204;-72
2021/04/04 08:00:21;;;;;;;10.98;3.08;;;6.90;99.90;;;7.35;56.89;101806.34;5012876;28;20225;-72
2021/04/04 08:03:03;;;;;;;9.05;2.60;;;7.10;99.90;;;7.40;57.33;101808.03;4997572;28;20611;-71
2021/04/04 08:05:35;;;;;;;11.93;3.35;;;7.10;99.90;;;7.40;57.63;101800.22;5013780;28;20207;-71
2021/04/04 08:08:06;;;;;;;13.35;3.60;;;7.20;99.90;;;7.41;58.18;101798.50;5011096;28;20666;-70
2021/04/04 08:10:43;;;;;;;12.40;3.55;;;7.20;99.90;;;7.41;58.86;101801.09;5015912;28;20249;-70
2021/04/04 08:13:16;;;;;;;11.50;3.83;;;7.20;99.90;;;7.41;59.29;101788.94;5001365;28;20221;-71
2021/04/04 08:15:58;;;;;;;13.05;3.95;;;7.20;99.90;;;7.49;59.58;101792.34;5015088;28;20193;-70
2021/04/04 08:18:24;;;;;;;19.35;5.18;;;7.20;99.90;;;7.60;59.79;101782.72;5023704;28;20218;-72
2021/04/04 08:20:57;;;;;;;14.15;3.65;;;7.30;99.90;;;7.77;60.11;101777.34;5007917;28;20263;-70
2021/04/04 08:23:29;;;;;;;14.45;4.10;;;7.50;99.90;;;7.88;59.73;101777.25;5009475;28;20214;-72
2021/04/04 08:26:01;;;;;;;12.55;4.00;;;7.60;99.90;;;7.96;59.89;101767.63;5021462;28;20202;-71
2021/04/04 08:28:38;;;;;;;14.48;4.22;;;7.70;99.90;;;8.06;59.98;101770.13;5012289;28;20233;-71
2021/04/04 08:31:18;;;;;;;14.75;4.53;;;7.80;99.90;;;8.15;59.66;101764.84;5048928;28;20650;-71
2021/04/04 08:33:50;;;;;;;16.13;4.68;;;7.90;99.90;;;8.23;59.55;101767.34;5030833;28;20174;-70
2021/04/04 08:36:22;;;;;;;12.68;4.60;;;8.00;99.90;;;8.29;59.86;101767.31;5041683;28;20209;-72
2021/04/04 08:38:50;;;;;;;14.18;4.85;;;8.00;99.90;;;8.36;59.85;101762.00;5034068;28;20344;-69
2021/04/04 08:41:19;;;;;;;13.32;4.70;;;8.10;99.90;;;8.40;59.91;101768.06;5035780;28;20233;-71
2021/04/04 08:43:54;;;;;;;16.23;5.20;;;8.20;99.90;;;8.41;59.57;101765.44;5024367;28;20206;-70
2021/04/04 08:46:31;;;;;;;14.68;4.85;;;8.20;99.90;;;8.44;59.87;101765.38;5012138;28;20193;-68
2021/04/04 08:48:59;;;;;;;14.07;4.80;;;8.20;99.90;;;8.47;60.10;101760.13;5019835;28;20221;-70
2021/04/04 08:51:29;;;;;;;16.02;4.72;;;8.30;99.90;;;8.53;59.85;101762.69;5007580;28;20244;-71
2021/04/04 08:54:00;;;;;;;16.10;4.85;;;8.30;99.90;;;8.66;60.01;101760.75;5009135;28;20194;-71
2021/04/04 08:56:29;;;;;;;17.55;5.18;;;8.50;99.90;;;8.74;59.75;101764.16;5012198;28;20244;-72
2021/04/04 08:58:57;;;;;;;16.88;4.90;;;8.60;99.90;;;8.84;59.86;101765.75;5021592;28;20222;-72
2021/04/04 09:01:37;;;;;;;16.73;5.07;;;8.70;99.90;;;8.93;59.51;101755.19;5007446;28;20190;-73
2021/04/04 09:04:06;;;;;;;15.98;4.53;;;8.70;99.90;;;8.98;59.63;101758.59;5010001;28;20284;-72
2021/04/04 09:06:39;;;;;;;15.25;4.20;;;8.80;99.90;;;9.02;59.79;101756.81;5014350;28;20213;-74
2021/04/04 09:09:22;;;;;;;15.63;4.30;;;8.90;99.90;;;9.07;59.50;101755.84;5021839;28;20644;-73
2021/04/04 09:11:52;;;;;;;16.38;4.20;;;8.90;99.90;;;9.05;59.46;101752.41;5017794;28;20665;-73
2021/04/04 09:14:19;;;;;;;14.02;4.05;;;8.90;99.90;;;9.02;59.28;101752.44;5012895;28;20199;-70
2021/04/04 09:16:59;;;;;;;12.55;4.10;;;8.90;99.90;;;9.06;59.24;101751.50;4999124;28;20671;-72
2021/04/04 09:19:29;;;;;;;15.13;4.28;;;8.90;99.90;;;9.17;59.39;101748.75;5001721;28;20228;-73
2021/04/04 09:22:01;;;;;;;14.50;4.85;;;9.00;99.90;;;9.28;59.17;101742.47;5010151;28;20225;-71
2021/04/04 09:24:30;;;;;;;15.13;4.40;;;9.10;99.90;;;9.39;58.79;101743.19;4997816;28;20221;-70
2021/04/04 09:27:00;;;;;;;17.35;4.70;;;9.20;99.90;;;9.40;59.08;101750.13;5018077;28;20202;-71
2021/04/04 09:29:28;;;;;;;16.13;4.35;;;9.20;99.90;;;9.42;58.64;101743.13;5000105;28;20206;-71
2021/04/04 09:31:58;;;;;;;14.82;4.03;;;9.30;99.90;;;9.46;58.12;101742.16;5024058;28;20191;-70
2021/04/04 09:34:27;;;;;;;12.02;3.78;;;9.30;99.90;;;9.47;58.13;101741.28;5009306;28;20202;-73
2021/04/04 09:36:53;;;;;;;14.43;4.13;;;9.30;99.90;;;9.51;58.13;101737.72;5026853;28;20218;-69
2021/04/04 09:39:27;;;;;;;15.70;4.20;;;9.40;99.90;;;9.56;57.82;101738.50;5023684;28;20210;-73
2021/04/04 09:41:55;;;;;;;20.15;4.50;;;9.40;99.90;;;9.63;58.18;101737.53;5004092;28;20305;-72
2021/04/04 09:44:30;;;;;;;24.13;5.10;;;9.50;99.90;;;9.62;58.25;101733.19;5005551;28;20348;-72
2021/04/04 09:47:00;;;;;;;14.13;5.15;;;9.50;99.90;;;9.67;58.12;101728.75;5016033;28;20201;-74
2021/04/04 09:49:37;;;;;;;14.07;4.80;;;9.50;99.90;;;9.77;58.00;101722.47;5006712;28;20324;-71
2021/04/04 09:52:26;;;;;;;15.00;4.28;;;9.60;99.90;;;9.88;57.83;101720.50;4998893;28;20297;-70
2021/04/04 09:54:59;;;;;;;14.30;4.03;;;9.70;99.90;;;9.94;57.21;101719.56;5006496;28;20205;-69
2021/04/04 09:57:26;;;;;;;12.85;4.28;;;9.80;99.90;;;10.02;57.15;101715.91;5023473;28;20209;-70
2021/04/04 09:59:53;;;;;;;13.95;4.22;;;9.90;99.90;;;10.14;57.33;101722.69;5004879;28;20223;-71
2021/04/04 10:02:35;;;;;;;15.05;4.20;;;10.00;99.90;;;10.24;57.09;101712.88;5009398;28;20234;-71
2021/04/04 10:05:03;;;;;;;14.20;3.85;;;10.10;99.90;;;10.29;56.81;101705.81;5016823;28;20682;-71
2021/04/04 10:07:31;;;;;;;15.32;4.38;;;10.20;99.90;;;10.42;56.37;101712.50;5007160;28;20199;-73
2021/04/04 10:09:59;;;;;;;13.05;4.07;;;10.40;99.90;;;10.53;56.38;101721.00;5006677;28;20210;-72
2021/04/04 10:12:26;;;;;;;11.82;4.30;;;10.50;99.90;;;10.54;56.09;101707.03;5005579;28;20642;-73
2021/04/04 10:15:05;;;;;;;13.93;4.20;;;10.50;99.90;;;10.54;56.12;101713.13;5016692;28;20682;-73
2021/04/04 10:17:35;;;;;;;16.70;4.00;;;10.50;99.90;;;10.51;56.34;101715.81;5002396;28;20191;-68
2021/04/04 10:20:05;;;;;;;13.73;4.00;;;10.50;99.90;;;10.41;56.51;101709.06;5000449;28;20909;-70
2021/04/04 10:22:50;;;;;;;12.55;3.33;;;10.30;99.90;;;10.23;56.40;101705.94;5003929;28;20200;-68
2021/04/04 10:25:18;;;;;;;14.30;4.22;;;10.10;99.90;;;10.24;56.17;101705.91;5002072;28;20636;-70
2021/04/04 10:27:44;;;;;;;15.45;4.00;;;10.20;99.90;;;10.30;56.10;101687.47;5005003;28;20631;-69
2021/04/04 10:30:15;;;;;;;18.13;5.35;;;10.20;99.90;;;10.49;56.10;101677.47;5001064;28;20222;-70
2021/04/04 10:32:44;;;;;;;13.43;4.40;;;10.50;99.90;;;10.78;55.91;101690.78;5001584;28;20225;-69
2021/04/04 10:35:27;;;;;;;14.50;3.72;;;10.80;99.90;;;11.04;55.49;101680.56;4999863;28;20208;-69
2021/04/04 10:38:02;;;;;;;12.60;3.53;;;11.10;99.90;;;11.00;55.04;101681.56;5002541;28;20220;-69
2021/04/04 10:40:51;;;;;;;14.20;3.72;;;11.10;99.90;;;10.98;55.71;101672.88;4996771;28;20249;-70
2021/04/04 10:43:21;;;;;;;13.00;3.75;;;11.10;99.90;;;11.00;55.23;101677.16;5001278;28;21543;-68
2021/04/04 10:45:59;;;;;;;15.40;3.63;;;11.10;99.90;;;10.73;55.53;101669.97;4999354;28;20297;-69
2021/04/04 10:48:28;;;;;;;13.02;3.33;;;10.80;99.90;;;10.54;55.92;101670.38;5004598;28;21591;-70